Currently N/A°F in De Luz, California, USA
N/A°F Alert
68°F / 48°F
N/A
0.00"
Wednesday, December 11, 2019 5:59 PM PST

De Luz, California Weather Summary
Last 36 Hours

Temperature Winds Hourly Humidity Dewpoint
Time Report Norm Report Norm Max Gusts Precip. Rpt. Norm Rpt. Norm Pressure
1Wed 02:44 PM  64.2°F  64°F  1 mph S  1 mph  5 mph  0.00"  66%  50%  52°F  45°F  28.83"
Wed 02:00 PM  67.1°F  65°F  calm  1 mph  3 mph  0.00"  49%  48%  47°F  44°F  28.83"
2Wed 01:50 PM  67.9°F  65°F  calm  1 mph  none  ----  46%  47%  46°F  44°F  28.83"
Wed 01:00 PM  65.5°F  65°F  N/A  1 mph  N/A  0.00"  51%  47%  46°F  43°F  28.84"
Wed 12:00 PM  65.3°F  64°F  calm  1 mph  none  0.00"  40%  48%  39°F  43°F  28.85"
Wed 11:00 AM  66.3°F  62°F  calm  1 mph  none  0.00"  45%  50%  44°F  43°F  28.89"
Wed 10:00 AM  61.8°F  60°F  calm  calm  none  0.00"  47%  54%  41°F  43°F  28.91"
Wed 09:00 AM  55.6°F  56°F  calm  calm  none  0.00"  68%  59%  45°F  42°F  28.89"
Wed 08:00 AM  50.5°F  53°F  calm  calm  none  0.00"  73%  63%  42°F  40°F  28.88"
Wed 07:00 AM  49.9°F  51°F  1 mph NE  calm  6 mph  0.00"  72%  64%  41°F  39°F  28.88"
Wed 06:00 AM  47.6°F  51°F  calm  calm  none  0.00"  69%  64%  38°F  39°F  28.87"
3Wed 05:58 AM  47.6°F  51°F  calm  calm  none  ----  69%  64%  38°F  39°F  28.87"
Wed 05:00 AM  48.2°F  51°F  calm  calm  none  0.00"  66%  64%  37°F  39°F  28.85"
Wed 04:00 AM  47.9°F  52°F  calm  calm  none  0.00"  68%  64%  37°F  39°F  28.85"
Wed 03:00 AM  49.5°F  52°F  calm  calm  none  0.00"  67%  65%  39°F  40°F  28.87"
Wed 02:00 AM  51.7°F  52°F  calm  calm  3 mph  0.00"  71%  65%  42°F  40°F  28.88"
Wed 01:00 AM  52.8°F  52°F  calm  calm  2 mph  0.00"  71%  65%  43°F  40°F  28.87"
Wed 12:00 AM  52.0°F  53°F  calm  calm  2 mph  0.00"  67%  65%  41°F  41°F  28.89"
Tue 11:00 PM  51.1°F  53°F  calm  calm  none  0.00"  69%  66%  41°F  41°F  28.90"
Tue 10:00 PM  52.3°F  53°F  calm  calm  none  0.00"  72%  66%  43°F  42°F  28.90"
Tue 09:00 PM  53.3°F  54°F  calm  calm  none  0.00"  76%  66%  46°F  42°F  28.87"
Tue 08:00 PM  53.2°F  54°F  calm  calm  none  0.00"  81%  67%  47°F  43°F  28.89"
Tue 07:00 PM  53.9°F  54°F  calm  calm  none  0.00"  79%  67%  47°F  43°F  28.89"
Tue 06:00 PM  55.1°F  55°F  calm  calm  none  0.00"  74%  66%  47°F  44°F  28.87"
Tue 05:00 PM  58.0°F  58°F  calm  calm  none  0.00"  70%  63%  48°F  44°F  28.86"
Tue 04:00 PM  62.0°F  61°F  calm  1 mph  none  0.00"  65%  55%  50°F  45°F  28.85"
Tue 03:00 PM  65.2°F  64°F  calm  1 mph  none  0.00"  42%  51%  41°F  45°F  28.87"
Tue 02:00 PM  65.3°F  65°F  calm  1 mph  3 mph  0.00"  47%  47%  44°F  44°F  28.88"
Tue 01:00 PM  67.6°F  65°F  calm  1 mph  none  0.00"  42%  46%  43°F  43°F  28.88"
Tue 12:00 PM  66.0°F  64°F  calm  1 mph  none  0.00"  56%  47%  49°F  43°F  28.91"
Tue 11:00 AM  62.3°F  63°F  calm  1 mph  none  0.00"  61%  49%  48°F  43°F  28.93"
Tue 10:00 AM  60.7°F  60°F  calm  calm  none  0.00"  56%  53%  44°F  42°F  28.91"
Tue 09:00 AM  55.1°F  57°F  calm  calm  none  0.00"  64%  58%  43°F  41°F  28.91"
Tue 08:00 AM  49.5°F  53°F  calm  calm  1 mph  0.00"  82%  61%  44°F  40°F  28.90"
Tue 07:00 AM  47.1°F  51°F  1 mph E  calm  4 mph  0.00"  84%  63%  42°F  38°F  28.89"
Tue 06:00 AM  46.5°F  51°F  calm  calm  none  0.00"  93%  63%  45°F  38°F  28.88"
Tue 05:00 AM  47.3°F  51°F  calm  calm  3 mph  0.00"  93%  63%  45°F  39°F  28.87"
Tue 04:00 AM  45.8°F  52°F  calm  calm  none  0.00"  93%  64%  44°F  39°F  28.85"
Tue 03:00 AM  47.9°F  52°F  calm  calm  none  0.00"  94%  64%  46°F  39°F  28.84"

  1. Current weather data. No green row appears if the current weather data is also the high or low for the current day.
  2. High temperature for the current day.
  3. Low temperature for the current day.

The De Luz, California weather pages are a service of WeatherCurrents. De Luz is located west of the Temecula Valley and north of Fallbrook, on the Santa Rosa Plateau, in southwestern Riverside County, California.
Copyright ©2019  WeatherCurrents. All rights reserved. - Submit questions and comments - Privacy Policy

This page automatically refreshes every 10 minutes.